sensor_id;sensor_type;location;lat;lon;timestamp;P1;durP1;ratioP1;P2;durP2;ratioP2
16577;SDS011;8401;52.528;13.340;2023-05-02T00:00:41;7.37;;;5.30;;
16577;SDS011;8401;52.528;13.340;2023-05-02T00:03:09;7.73;;;4.73;;
16577;SDS011;8401;52.528;13.340;2023-05-02T00:05:35;6.77;;;5.20;;
16577;SDS011;8401;52.528;13.340;2023-05-02T00:08:01;8.93;;;5.30;;
16577;SDS011;8401;52.528;13.340;2023-05-02T00:10:27;8.07;;;5.13;;
16577;SDS011;8401;52.528;13.340;2023-05-02T00:12:52;6.37;;;5.10;;
16577;SDS011;8401;52.528;13.340;2023-05-02T00:15:18;6.20;;;5.03;;
16577;SDS011;8401;52.528;13.340;2023-05-02T00:17:44;6.43;;;5.23;;
16577;SDS011;8401;52.528;13.340;2023-05-02T00:20:10;7.03;;;4.97;;
16577;SDS011;8401;52.528;13.340;2023-05-02T00:22:36;6.67;;;5.13;;
16577;SDS011;8401;52.528;13.340;2023-05-02T00:25:02;7.27;;;5.07;;
16577;SDS011;8401;52.528;13.340;2023-05-02T00:27:28;7.13;;;5.00;;
16577;SDS011;8401;52.528;13.340;2023-05-02T00:29:54;6.30;;;4.90;;
16577;SDS011;8401;52.528;13.340;2023-05-02T00:32:20;8.63;;;5.43;;
16577;SDS011;8401;52.528;13.340;2023-05-02T00:34:46;9.57;;;4.97;;
16577;SDS011;8401;52.528;13.340;2023-05-02T00:37:11;5.57;;;4.97;;
16577;SDS011;8401;52.528;13.340;2023-05-02T00:39:37;7.63;;;5.10;;
16577;SDS011;8401;52.528;13.340;2023-05-02T00:42:03;5.97;;;4.73;;
16577;SDS011;8401;52.528;13.340;2023-05-02T00:44:29;8.20;;;5.00;;
16577;SDS011;8401;52.528;13.340;2023-05-02T00:46:55;7.93;;;5.27;;
16577;SDS011;8401;52.528;13.340;2023-05-02T00:49:21;8.63;;;4.97;;
16577;SDS011;8401;52.528;13.340;2023-05-02T00:51:47;6.70;;;5.07;;
16577;SDS011;8401;52.528;13.340;2023-05-02T00:54:12;8.00;;;4.90;;
16577;SDS011;8401;52.528;13.340;2023-05-02T00:56:38;7.77;;;5.10;;
16577;SDS011;8401;52.528;13.340;2023-05-02T00:59:04;7.50;;;5.00;;
16577;SDS011;8401;52.528;13.340;2023-05-02T01:04:29;9.30;;;5.20;;
16577;SDS011;8401;52.528;13.340;2023-05-02T01:09:54;6.37;;;4.97;;
16577;SDS011;8401;52.528;13.340;2023-05-02T01:12:41;6.47;;;5.03;;
16577;SDS011;8401;52.528;13.340;2023-05-02T01:15:18;7.37;;;5.57;;
16577;SDS011;8401;52.528;13.340;2023-05-02T01:17:46;9.20;;;5.37;;
16577;SDS011;8401;52.528;13.340;2023-05-02T01:20:14;6.40;;;5.10;;
16577;SDS011;8401;52.528;13.340;2023-05-02T01:22:44;6.87;;;4.67;;
16577;SDS011;8401;52.528;13.340;2023-05-02T01:28:04;6.27;;;5.00;;
16577;SDS011;8401;52.528;13.340;2023-05-02T01:30:35;5.80;;;4.90;;
16577;SDS011;8401;52.528;13.340;2023-05-02T01:33:03;5.13;;;4.50;;
16577;SDS011;8401;52.528;13.340;2023-05-02T01:35:31;6.13;;;4.83;;
16577;SDS011;8401;52.528;13.340;2023-05-02T01:37:59;7.30;;;4.87;;
16577;SDS011;8401;52.528;13.340;2023-05-02T01:40:26;8.60;;;4.80;;
16577;SDS011;8401;52.528;13.340;2023-05-02T01:42:53;5.47;;;4.33;;
16577;SDS011;8401;52.528;13.340;2023-05-02T01:45:22;6.77;;;5.10;;
16577;SDS011;8401;52.528;13.340;2023-05-02T01:47:49;8.53;;;5.10;;
16577;SDS011;8401;52.528;13.340;2023-05-02T01:50:20;8.40;;;4.97;;
16577;SDS011;8401;52.528;13.340;2023-05-02T01:52:48;5.83;;;4.73;;
16577;SDS011;8401;52.528;13.340;2023-05-02T01:55:16;8.57;;;5.00;;
16577;SDS011;8401;52.528;13.340;2023-05-02T01:57:42;9.03;;;5.40;;
16577;SDS011;8401;52.528;13.340;2023-05-02T02:00:11;6.83;;;4.90;;
16577;SDS011;8401;52.528;13.340;2023-05-02T02:02:38;7.53;;;5.27;;
16577;SDS011;8401;52.528;13.340;2023-05-02T02:05:06;7.10;;;5.23;;
16577;SDS011;8401;52.528;13.340;2023-05-02T02:07:33;6.60;;;5.60;;
16577;SDS011;8401;52.528;13.340;2023-05-02T02:09:59;6.87;;;5.03;;
16577;SDS011;8401;52.528;13.340;2023-05-02T02:12:26;6.17;;;4.87;;
16577;SDS011;8401;52.528;13.340;2023-05-02T02:14:55;6.83;;;5.10;;
16577;SDS011;8401;52.528;13.340;2023-05-02T02:17:36;7.10;;;4.43;;
16577;SDS011;8401;52.528;13.340;2023-05-02T02:20:07;7.20;;;5.60;;
16577;SDS011;8401;52.528;13.340;2023-05-02T02:22:39;7.07;;;4.50;;
16577;SDS011;8401;52.528;13.340;2023-05-02T02:25:07;8.80;;;5.20;;
16577;SDS011;8401;52.528;13.340;2023-05-02T02:27:36;6.57;;;4.83;;
16577;SDS011;8401;52.528;13.340;2023-05-02T02:30:03;5.97;;;4.80;;
16577;SDS011;8401;52.528;13.340;2023-05-02T02:32:29;9.90;;;5.00;;
16577;SDS011;8401;52.528;13.340;2023-05-02T02:34:55;7.33;;;4.73;;
16577;SDS011;8401;52.528;13.340;2023-05-02T02:37:25;6.80;;;4.73;;
16577;SDS011;8401;52.528;13.340;2023-05-02T02:40:07;8.33;;;4.73;;
16577;SDS011;8401;52.528;13.340;2023-05-02T02:52:01;7.50;;;4.10;;
16577;SDS011;8401;52.528;13.340;2023-05-02T02:54:45;6.17;;;4.13;;
16577;SDS011;8401;52.528;13.340;2023-05-02T02:57:15;8.33;;;4.70;;
16577;SDS011;8401;52.528;13.340;2023-05-02T02:59:49;6.43;;;4.73;;
16577;SDS011;8401;52.528;13.340;2023-05-02T03:02:23;9.80;;;4.30;;
16577;SDS011;8401;52.528;13.340;2023-05-02T03:04:53;7.27;;;4.07;;
16577;SDS011;8401;52.528;13.340;2023-05-02T03:07:20;5.83;;;4.37;;
16577;SDS011;8401;52.528;13.340;2023-05-02T03:09:46;5.57;;;3.80;;
16577;SDS011;8401;52.528;13.340;2023-05-02T03:12:12;4.77;;;4.03;;
16577;SDS011;8401;52.528;13.340;2023-05-02T03:14:38;5.20;;;3.60;;
16577;SDS011;8401;52.528;13.340;2023-05-02T03:17:05;5.80;;;3.73;;
16577;SDS011;8401;52.528;13.340;2023-05-02T03:19:32;4.90;;;3.53;;
16577;SDS011;8401;52.528;13.340;2023-05-02T03:21:58;5.40;;;4.23;;
16577;SDS011;8401;52.528;13.340;2023-05-02T03:24:24;4.67;;;3.43;;
16577;SDS011;8401;52.528;13.340;2023-05-02T03:26:54;5.87;;;3.97;;
16577;SDS011;8401;52.528;13.340;2023-05-02T03:29:21;6.73;;;3.60;;
16577;SDS011;8401;52.528;13.340;2023-05-02T03:31:47;5.97;;;3.83;;
16577;SDS011;8401;52.528;13.340;2023-05-02T03:34:12;5.53;;;3.43;;
16577;SDS011;8401;52.528;13.340;2023-05-02T03:36:38;4.47;;;3.30;;
16577;SDS011;8401;52.528;13.340;2023-05-02T03:39:04;4.67;;;3.50;;
16577;SDS011;8401;52.528;13.340;2023-05-02T03:41:30;5.23;;;3.70;;
16577;SDS011;8401;52.528;13.340;2023-05-02T03:43:56;5.80;;;4.07;;
16577;SDS011;8401;52.528;13.340;2023-05-02T03:46:21;5.87;;;4.20;;
16577;SDS011;8401;52.528;13.340;2023-05-02T03:48:47;6.33;;;4.13;;
16577;SDS011;8401;52.528;13.340;2023-05-02T03:51:13;5.40;;;4.37;;
16577;SDS011;8401;52.528;13.340;2023-05-02T03:53:38;5.23;;;4.07;;
16577;SDS011;8401;52.528;13.340;2023-05-02T03:56:04;5.80;;;4.20;;
16577;SDS011;8401;52.528;13.340;2023-05-02T03:58:32;5.33;;;4.27;;
16577;SDS011;8401;52.528;13.340;2023-05-02T04:00:58;5.50;;;4.27;;
16577;SDS011;8401;52.528;13.340;2023-05-02T04:03:23;8.17;;;4.30;;
16577;SDS011;8401;52.528;13.340;2023-05-02T04:05:49;7.20;;;4.30;;
16577;SDS011;8401;52.528;13.340;2023-05-02T04:08:15;7.03;;;3.97;;
16577;SDS011;8401;52.528;13.340;2023-05-02T04:10:41;5.00;;;3.60;;
16577;SDS011;8401;52.528;13.340;2023-05-02T04:13:07;6.83;;;4.67;;
16577;SDS011;8401;52.528;13.340;2023-05-02T04:15:33;5.33;;;3.63;;
16577;SDS011;8401;52.528;13.340;2023-05-02T04:17:58;4.50;;;3.70;;
16577;SDS011;8401;52.528;13.340;2023-05-02T04:20:24;3.73;;;3.37;;
16577;SDS011;8401;52.528;13.340;2023-05-02T04:22:50;5.40;;;3.80;;
16577;SDS011;8401;52.528;13.340;2023-05-02T04:25:16;5.50;;;3.60;;
16577;SDS011;8401;52.528;13.340;2023-05-02T04:27:42;5.13;;;3.77;;
16577;SDS011;8401;52.528;13.340;2023-05-02T04:30:08;6.70;;;3.70;;
16577;SDS011;8401;52.528;13.340;2023-05-02T04:32:36;5.23;;;3.77;;
16577;SDS011;8401;52.528;13.340;2023-05-02T04:35:02;5.63;;;3.27;;
16577;SDS011;8401;52.528;13.340;2023-05-02T04:37:28;6.53;;;3.30;;
16577;SDS011;8401;52.528;13.340;2023-05-02T04:39:54;5.83;;;3.70;;
16577;SDS011;8401;52.528;13.340;2023-05-02T04:42:19;4.93;;;3.60;;
16577;SDS011;8401;52.528;13.340;2023-05-02T04:44:45;8.10;;;3.03;;
16577;SDS011;8401;52.528;13.340;2023-05-02T04:47:12;6.27;;;3.43;;
16577;SDS011;8401;52.528;13.340;2023-05-02T04:49:37;6.87;;;3.20;;
16577;SDS011;8401;52.528;13.340;2023-05-02T04:52:03;5.20;;;3.83;;
16577;SDS011;8401;52.528;13.340;2023-05-02T04:54:31;6.83;;;3.27;;
16577;SDS011;8401;52.528;13.340;2023-05-02T04:56:57;6.23;;;3.40;;
16577;SDS011;8401;52.528;13.340;2023-05-02T04:59:23;5.70;;;3.23;;
16577;SDS011;8401;52.528;13.340;2023-05-02T05:01:49;4.73;;;3.30;;
16577;SDS011;8401;52.528;13.340;2023-05-02T05:04:15;5.20;;;3.50;;
16577;SDS011;8401;52.528;13.340;2023-05-02T05:06:40;5.97;;;3.60;;
16577;SDS011;8401;52.528;13.340;2023-05-02T05:09:06;5.30;;;3.50;;
16577;SDS011;8401;52.528;13.340;2023-05-02T05:11:32;6.43;;;3.40;;
16577;SDS011;8401;52.528;13.340;2023-05-02T05:13:57;6.03;;;3.53;;
16577;SDS011;8401;52.528;13.340;2023-05-02T05:16:23;5.40;;;3.23;;
16577;SDS011;8401;52.528;13.340;2023-05-02T05:18:49;6.03;;;3.10;;
16577;SDS011;8401;52.528;13.340;2023-05-02T05:21:14;5.93;;;3.50;;
16577;SDS011;8401;52.528;13.340;2023-05-02T05:23:40;5.87;;;3.53;;
16577;SDS011;8401;52.528;13.340;2023-05-02T05:26:13;4.77;;;3.47;;
16577;SDS011;8401;52.528;13.340;2023-05-02T05:28:40;5.67;;;3.27;;
16577;SDS011;8401;52.528;13.340;2023-05-02T05:31:09;7.17;;;3.13;;
16577;SDS011;8401;52.528;13.340;2023-05-02T05:33:37;5.07;;;3.07;;
16577;SDS011;8401;52.528;13.340;2023-05-02T05:36:06;5.20;;;3.40;;
16577;SDS011;8401;52.528;13.340;2023-05-02T05:38:35;6.33;;;3.33;;
16577;SDS011;8401;52.528;13.340;2023-05-02T05:41:01;6.30;;;3.40;;
16577;SDS011;8401;52.528;13.340;2023-05-02T05:43:27;8.27;;;3.60;;
16577;SDS011;8401;52.528;13.340;2023-05-02T05:45:53;6.77;;;3.83;;
16577;SDS011;8401;52.528;13.340;2023-05-02T05:48:19;5.70;;;3.67;;
16577;SDS011;8401;52.528;13.340;2023-05-02T05:50:46;6.17;;;3.87;;
16577;SDS011;8401;52.528;13.340;2023-05-02T05:53:12;5.43;;;3.73;;
16577;SDS011;8401;52.528;13.340;2023-05-02T05:55:38;5.23;;;4.03;;
16577;SDS011;8401;52.528;13.340;2023-05-02T05:58:04;7.37;;;4.33;;
16577;SDS011;8401;52.528;13.340;2023-05-02T06:00:30;6.60;;;4.40;;
16577;SDS011;8401;52.528;13.340;2023-05-02T06:02:58;6.70;;;3.77;;
16577;SDS011;8401;52.528;13.340;2023-05-02T06:05:24;7.60;;;4.47;;
16577;SDS011;8401;52.528;13.340;2023-05-02T06:07:50;5.63;;;4.23;;
16577;SDS011;8401;52.528;13.340;2023-05-02T06:10:15;7.23;;;4.90;;
16577;SDS011;8401;52.528;13.340;2023-05-02T06:12:41;7.87;;;4.80;;
16577;SDS011;8401;52.528;13.340;2023-05-02T06:15:06;6.47;;;4.17;;
16577;SDS011;8401;52.528;13.340;2023-05-02T06:17:32;6.00;;;4.43;;
16577;SDS011;8401;52.528;13.340;2023-05-02T06:19:58;6.33;;;4.80;;
16577;SDS011;8401;52.528;13.340;2023-05-02T06:22:23;11.10;;;5.60;;
16577;SDS011;8401;52.528;13.340;2023-05-02T06:24:49;8.73;;;5.93;;
16577;SDS011;8401;52.528;13.340;2023-05-02T06:27:15;8.53;;;6.00;;
16577;SDS011;8401;52.528;13.340;2023-05-02T06:29:40;11.63;;;6.33;;
16577;SDS011;8401;52.528;13.340;2023-05-02T06:32:06;13.33;;;6.50;;
16577;SDS011;8401;52.528;13.340;2023-05-02T06:34:32;11.70;;;7.37;;
16577;SDS011;8401;52.528;13.340;2023-05-02T06:36:58;9.87;;;6.87;;
16577;SDS011;8401;52.528;13.340;2023-05-02T06:39:23;11.40;;;7.53;;
16577;SDS011;8401;52.528;13.340;2023-05-02T06:41:49;11.90;;;7.17;;
16577;SDS011;8401;52.528;13.340;2023-05-02T06:44:15;9.90;;;7.10;;
16577;SDS011;8401;52.528;13.340;2023-05-02T06:46:41;9.07;;;6.90;;
16577;SDS011;8401;52.528;13.340;2023-05-02T06:49:06;11.50;;;6.83;;
16577;SDS011;8401;52.528;13.340;2023-05-02T06:51:32;10.83;;;6.27;;
16577;SDS011;8401;52.528;13.340;2023-05-02T06:53:58;10.63;;;6.87;;
16577;SDS011;8401;52.528;13.340;2023-05-02T06:56:23;9.90;;;6.30;;
16577;SDS011;8401;52.528;13.340;2023-05-02T06:58:50;8.40;;;5.67;;
16577;SDS011;8401;52.528;13.340;2023-05-02T07:01:16;8.83;;;5.80;;
16577;SDS011;8401;52.528;13.340;2023-05-02T07:03:42;8.70;;;5.57;;
16577;SDS011;8401;52.528;13.340;2023-05-02T07:06:07;10.20;;;5.90;;
16577;SDS011;8401;52.528;13.340;2023-05-02T07:08:33;9.80;;;5.90;;
16577;SDS011;8401;52.528;13.340;2023-05-02T07:10:59;9.73;;;5.80;;
16577;SDS011;8401;52.528;13.340;2023-05-02T07:13:26;8.27;;;6.07;;
16577;SDS011;8401;52.528;13.340;2023-05-02T07:15:51;7.97;;;5.37;;
16577;SDS011;8401;52.528;13.340;2023-05-02T07:18:18;10.00;;;5.77;;
16577;SDS011;8401;52.528;13.340;2023-05-02T07:20:43;8.07;;;5.63;;
16577;SDS011;8401;52.528;13.340;2023-05-02T07:23:09;7.60;;;6.23;;
16577;SDS011;8401;52.528;13.340;2023-05-02T07:25:35;7.70;;;5.80;;
16577;SDS011;8401;52.528;13.340;2023-05-02T07:28:01;6.37;;;4.87;;
16577;SDS011;8401;52.528;13.340;2023-05-02T07:30:27;7.25;;;5.70;;
16577;SDS011;8401;52.528;13.340;2023-05-02T07:32:52;5.97;;;4.73;;
16577;SDS011;8401;52.528;13.340;2023-05-02T07:35:18;7.17;;;5.67;;
16577;SDS011;8401;52.528;13.340;2023-05-02T07:37:43;6.67;;;5.00;;
16577;SDS011;8401;52.528;13.340;2023-05-02T07:40:09;6.57;;;5.20;;
16577;SDS011;8401;52.528;13.340;2023-05-02T07:42:35;7.20;;;4.97;;
16577;SDS011;8401;52.528;13.340;2023-05-02T07:45:01;7.60;;;5.37;;
16577;SDS011;8401;52.528;13.340;2023-05-02T07:47:26;7.50;;;5.60;;
16577;SDS011;8401;52.528;13.340;2023-05-02T07:49:53;7.57;;;4.73;;
16577;SDS011;8401;52.528;13.340;2023-05-02T07:52:20;6.67;;;5.10;;
16577;SDS011;8401;52.528;13.340;2023-05-02T07:54:49;5.63;;;4.27;;
16577;SDS011;8401;52.528;13.340;2023-05-02T07:57:15;6.67;;;4.50;;
16577;SDS011;8401;52.528;13.340;2023-05-02T07:59:41;8.47;;;5.50;;
16577;SDS011;8401;52.528;13.340;2023-05-02T08:02:07;8.70;;;5.60;;
16577;SDS011;8401;52.528;13.340;2023-05-02T08:04:33;7.27;;;5.50;;
16577;SDS011;8401;52.528;13.340;2023-05-02T08:06:59;7.00;;;5.10;;
16577;SDS011;8401;52.528;13.340;2023-05-02T08:09:27;8.73;;;5.60;;
16577;SDS011;8401;52.528;13.340;2023-05-02T08:11:53;6.23;;;4.50;;
16577;SDS011;8401;52.528;13.340;2023-05-02T08:14:19;6.47;;;4.47;;
16577;SDS011;8401;52.528;13.340;2023-05-02T08:16:44;8.13;;;4.37;;
16577;SDS011;8401;52.528;13.340;2023-05-02T08:19:10;7.63;;;4.73;;
16577;SDS011;8401;52.528;13.340;2023-05-02T08:21:36;7.87;;;4.70;;
16577;SDS011;8401;52.528;13.340;2023-05-02T08:24:01;5.87;;;3.90;;
16577;SDS011;8401;52.528;13.340;2023-05-02T08:26:27;5.87;;;4.30;;
16577;SDS011;8401;52.528;13.340;2023-05-02T08:28:53;4.77;;;3.40;;
16577;SDS011;8401;52.528;13.340;2023-05-02T08:31:19;4.80;;;3.60;;
16577;SDS011;8401;52.528;13.340;2023-05-02T08:33:45;5.33;;;3.37;;
16577;SDS011;8401;52.528;13.340;2023-05-02T08:36:12;3.53;;;3.13;;
16577;SDS011;8401;52.528;13.340;2023-05-02T08:38:42;5.53;;;3.50;;
16577;SDS011;8401;52.528;13.340;2023-05-02T08:41:12;6.97;;;3.70;;
16577;SDS011;8401;52.528;13.340;2023-05-02T08:43:39;4.27;;;3.10;;
16577;SDS011;8401;52.528;13.340;2023-05-02T08:46:05;3.60;;;3.00;;
16577;SDS011;8401;52.528;13.340;2023-05-02T08:48:34;4.80;;;3.57;;
16577;SDS011;8401;52.528;13.340;2023-05-02T08:51:01;4.37;;;3.47;;
16577;SDS011;8401;52.528;13.340;2023-05-02T08:53:32;5.63;;;3.40;;
16577;SDS011;8401;52.528;13.340;2023-05-02T08:55:59;7.70;;;3.63;;
16577;SDS011;8401;52.528;13.340;2023-05-02T08:58:25;4.90;;;2.90;;
16577;SDS011;8401;52.528;13.340;2023-05-02T09:00:51;4.20;;;3.20;;
16577;SDS011;8401;52.528;13.340;2023-05-02T09:03:22;4.10;;;3.13;;
16577;SDS011;8401;52.528;13.340;2023-05-02T09:06:04;5.27;;;3.10;;
16577;SDS011;8401;52.528;13.340;2023-05-02T09:08:30;6.10;;;3.90;;
16577;SDS011;8401;52.528;13.340;2023-05-02T09:10:56;4.30;;;3.67;;
16577;SDS011;8401;52.528;13.340;2023-05-02T09:18:46;4.33;;;3.10;;
16577;SDS011;8401;52.528;13.340;2023-05-02T09:21:16;4.57;;;3.20;;
16577;SDS011;8401;52.528;13.340;2023-05-02T09:26:23;5.70;;;3.87;;
16577;SDS011;8401;52.528;13.340;2023-05-02T09:29:07;4.13;;;3.40;;
16577;SDS011;8401;52.528;13.340;2023-05-02T09:31:34;6.07;;;3.57;;
16577;SDS011;8401;52.528;13.340;2023-05-02T09:34:07;5.13;;;3.97;;
16577;SDS011;8401;52.528;13.340;2023-05-02T09:36:47;3.30;;;2.80;;
16577;SDS011;8401;52.528;13.340;2023-05-02T09:39:18;4.50;;;3.17;;
16577;SDS011;8401;52.528;13.340;2023-05-02T09:41:46;3.13;;;2.53;;
16577;SDS011;8401;52.528;13.340;2023-05-02T09:44:13;3.13;;;2.47;;
16577;SDS011;8401;52.528;13.340;2023-05-02T09:46:45;3.67;;;2.43;;
16577;SDS011;8401;52.528;13.340;2023-05-02T09:49:15;4.67;;;2.87;;
16577;SDS011;8401;52.528;13.340;2023-05-02T09:51:47;3.13;;;2.40;;
16577;SDS011;8401;52.528;13.340;2023-05-02T09:54:14;4.67;;;2.77;;
16577;SDS011;8401;52.528;13.340;2023-05-02T09:57:03;4.40;;;2.70;;
16577;SDS011;8401;52.528;13.340;2023-05-02T09:59:30;4.23;;;2.70;;
16577;SDS011;8401;52.528;13.340;2023-05-02T10:01:57;4.53;;;3.00;;
16577;SDS011;8401;52.528;13.340;2023-05-02T10:04:26;3.53;;;2.17;;
16577;SDS011;8401;52.528;13.340;2023-05-02T10:06:53;4.10;;;2.63;;
16577;SDS011;8401;52.528;13.340;2023-05-02T10:09:19;3.43;;;2.77;;
16577;SDS011;8401;52.528;13.340;2023-05-02T10:11:46;4.20;;;2.70;;
16577;SDS011;8401;52.528;13.340;2023-05-02T10:14:15;6.10;;;2.97;;
16577;SDS011;8401;52.528;13.340;2023-05-02T10:16:54;5.63;;;3.00;;
16577;SDS011;8401;52.528;13.340;2023-05-02T10:22:21;4.87;;;3.20;;
16577;SDS011;8401;52.528;13.340;2023-05-02T10:24:47;4.30;;;2.70;;
16577;SDS011;8401;52.528;13.340;2023-05-02T10:27:13;3.33;;;2.73;;
16577;SDS011;8401;52.528;13.340;2023-05-02T10:29:39;3.00;;;2.60;;
16577;SDS011;8401;52.528;13.340;2023-05-02T10:32:06;3.47;;;2.30;;
16577;SDS011;8401;52.528;13.340;2023-05-02T10:34:33;3.83;;;2.60;;
16577;SDS011;8401;52.528;13.340;2023-05-02T10:36:59;3.30;;;2.60;;
16577;SDS011;8401;52.528;13.340;2023-05-02T10:39:26;3.33;;;2.60;;
16577;SDS011;8401;52.528;13.340;2023-05-02T10:41:53;3.13;;;2.50;;
16577;SDS011;8401;52.528;13.340;2023-05-02T10:44:31;4.37;;;2.67;;
16577;SDS011;8401;52.528;13.340;2023-05-02T10:47:11;6.20;;;3.00;;
16577;SDS011;8401;52.528;13.340;2023-05-02T10:52:34;4.53;;;2.90;;
16577;SDS011;8401;52.528;13.340;2023-05-02T10:55:14;6.97;;;3.07;;
16577;SDS011;8401;52.528;13.340;2023-05-02T11:00:33;6.33;;;4.17;;
16577;SDS011;8401;52.528;13.340;2023-05-02T11:02:59;10.03;;;4.80;;
16577;SDS011;8401;52.528;13.340;2023-05-02T11:05:25;8.27;;;4.30;;
16577;SDS011;8401;52.528;13.340;2023-05-02T11:10:39;11.97;;;5.60;;
16577;SDS011;8401;52.528;13.340;2023-05-02T11:13:05;11.47;;;6.47;;
16577;SDS011;8401;52.528;13.340;2023-05-02T11:18:00;12.70;;;5.10;;
16577;SDS011;8401;52.528;13.340;2023-05-02T11:20:27;8.67;;;4.97;;
16577;SDS011;8401;52.528;13.340;2023-05-02T11:22:53;8.60;;;4.17;;
16577;SDS011;8401;52.528;13.340;2023-05-02T11:25:46;11.33;;;4.50;;
16577;SDS011;8401;52.528;13.340;2023-05-02T11:31:01;13.17;;;3.50;;
16577;SDS011;8401;52.528;13.340;2023-05-02T11:33:27;5.10;;;2.60;;
16577;SDS011;8401;52.528;13.340;2023-05-02T11:35:53;5.13;;;3.40;;
16577;SDS011;8401;52.528;13.340;2023-05-02T11:38:22;7.53;;;3.20;;
16577;SDS011;8401;52.528;13.340;2023-05-02T11:40:58;6.90;;;3.30;;
16577;SDS011;8401;52.528;13.340;2023-05-02T11:43:24;6.23;;;3.17;;
16577;SDS011;8401;52.528;13.340;2023-05-02T11:45:52;4.83;;;3.43;;
16577;SDS011;8401;52.528;13.340;2023-05-02T11:48:19;5.70;;;2.97;;
16577;SDS011;8401;52.528;13.340;2023-05-02T11:50:56;8.80;;;3.67;;
16577;SDS011;8401;52.528;13.340;2023-05-02T11:53:26;6.10;;;2.90;;
16577;SDS011;8401;52.528;13.340;2023-05-02T11:55:57;5.53;;;2.83;;
16577;SDS011;8401;52.528;13.340;2023-05-02T11:58:26;5.90;;;3.00;;
16577;SDS011;8401;52.528;13.340;2023-05-02T12:03:37;8.13;;;2.90;;
16577;SDS011;8401;52.528;13.340;2023-05-02T12:06:10;6.83;;;2.63;;
16577;SDS011;8401;52.528;13.340;2023-05-02T12:08:37;6.47;;;2.93;;
16577;SDS011;8401;52.528;13.340;2023-05-02T12:11:04;6.73;;;2.67;;
16577;SDS011;8401;52.528;13.340;2023-05-02T12:13:30;6.03;;;2.77;;
16577;SDS011;8401;52.528;13.340;2023-05-02T12:15:56;6.67;;;2.47;;
16577;SDS011;8401;52.528;13.340;2023-05-02T12:18:23;5.50;;;2.73;;
16577;SDS011;8401;52.528;13.340;2023-05-02T12:20:53;6.70;;;2.63;;
16577;SDS011;8401;52.528;13.340;2023-05-02T12:23:20;7.03;;;2.77;;
16577;SDS011;8401;52.528;13.340;2023-05-02T12:25:47;10.03;;;3.93;;
16577;SDS011;8401;52.528;13.340;2023-05-02T12:28:13;8.23;;;3.30;;
16577;SDS011;8401;52.528;13.340;2023-05-02T12:30:45;7.23;;;2.90;;
16577;SDS011;8401;52.528;13.340;2023-05-02T12:33:12;6.37;;;3.30;;
16577;SDS011;8401;52.528;13.340;2023-05-02T12:35:38;6.33;;;3.30;;
16577;SDS011;8401;52.528;13.340;2023-05-02T12:38:09;7.03;;;3.50;;
16577;SDS011;8401;52.528;13.340;2023-05-02T12:40:46;9.73;;;3.33;;
16577;SDS011;8401;52.528;13.340;2023-05-02T12:43:17;11.63;;;4.00;;
16577;SDS011;8401;52.528;13.340;2023-05-02T12:45:44;9.03;;;2.57;;
16577;SDS011;8401;52.528;13.340;2023-05-02T12:48:19;9.73;;;3.90;;
16577;SDS011;8401;52.528;13.340;2023-05-02T12:50:46;11.83;;;3.87;;
16577;SDS011;8401;52.528;13.340;2023-05-02T12:53:12;9.67;;;3.17;;
16577;SDS011;8401;52.528;13.340;2023-05-02T12:55:38;8.00;;;3.43;;
16577;SDS011;8401;52.528;13.340;2023-05-02T12:58:05;9.40;;;3.77;;
16577;SDS011;8401;52.528;13.340;2023-05-02T13:00:32;10.23;;;3.43;;
16577;SDS011;8401;52.528;13.340;2023-05-02T13:03:00;8.33;;;3.30;;
16577;SDS011;8401;52.528;13.340;2023-05-02T13:05:26;11.63;;;3.93;;
16577;SDS011;8401;52.528;13.340;2023-05-02T13:07:51;15.47;;;3.63;;
16577;SDS011;8401;52.528;13.340;2023-05-02T13:10:17;7.83;;;3.23;;
16577;SDS011;8401;52.528;13.340;2023-05-02T13:12:43;9.47;;;3.93;;
16577;SDS011;8401;52.528;13.340;2023-05-02T13:15:10;9.57;;;3.50;;
16577;SDS011;8401;52.528;13.340;2023-05-02T13:17:37;8.53;;;3.30;;
16577;SDS011;8401;52.528;13.340;2023-05-02T13:20:02;8.00;;;3.07;;
16577;SDS011;8401;52.528;13.340;2023-05-02T13:22:28;7.27;;;3.07;;
16577;SDS011;8401;52.528;13.340;2023-05-02T13:24:54;6.23;;;2.97;;
16577;SDS011;8401;52.528;13.340;2023-05-02T13:27:22;7.13;;;3.00;;
16577;SDS011;8401;52.528;13.340;2023-05-02T13:29:48;7.10;;;2.70;;
16577;SDS011;8401;52.528;13.340;2023-05-02T13:32:14;7.03;;;3.20;;
16577;SDS011;8401;52.528;13.340;2023-05-02T13:34:40;7.77;;;3.17;;
16577;SDS011;8401;52.528;13.340;2023-05-02T13:37:06;8.77;;;3.07;;
16577;SDS011;8401;52.528;13.340;2023-05-02T13:39:32;8.80;;;3.13;;
16577;SDS011;8401;52.528;13.340;2023-05-02T13:41:58;7.27;;;3.20;;
16577;SDS011;8401;52.528;13.340;2023-05-02T13:44:23;5.73;;;3.00;;
16577;SDS011;8401;52.528;13.340;2023-05-02T13:46:49;8.80;;;3.33;;
16577;SDS011;8401;52.528;13.340;2023-05-02T13:49:15;7.87;;;3.37;;
16577;SDS011;8401;52.528;13.340;2023-05-02T13:51:40;5.20;;;2.57;;
16577;SDS011;8401;52.528;13.340;2023-05-02T13:54:06;5.67;;;3.00;;
16577;SDS011;8401;52.528;13.340;2023-05-02T13:56:31;8.03;;;3.13;;
16577;SDS011;8401;52.528;13.340;2023-05-02T13:58:57;6.10;;;3.70;;
16577;SDS011;8401;52.528;13.340;2023-05-02T14:01:23;6.07;;;3.07;;
16577;SDS011;8401;52.528;13.340;2023-05-02T14:03:52;7.77;;;3.40;;
16577;SDS011;8401;52.528;13.340;2023-05-02T14:06:18;8.40;;;3.33;;
16577;SDS011;8401;52.528;13.340;2023-05-02T14:08:43;6.00;;;3.23;;
16577;SDS011;8401;52.528;13.340;2023-05-02T14:11:09;6.10;;;3.10;;
16577;SDS011;8401;52.528;13.340;2023-05-02T14:13:35;6.13;;;3.40;;
16577;SDS011;8401;52.528;13.340;2023-05-02T14:16:01;5.17;;;3.00;;
16577;SDS011;8401;52.528;13.340;2023-05-02T14:18:27;5.90;;;2.80;;
16577;SDS011;8401;52.528;13.340;2023-05-02T14:20:53;4.07;;;2.73;;
16577;SDS011;8401;52.528;13.340;2023-05-02T14:23:20;4.60;;;2.70;;
16577;SDS011;8401;52.528;13.340;2023-05-02T14:25:46;5.80;;;3.83;;
16577;SDS011;8401;52.528;13.340;2023-05-02T14:28:11;6.00;;;2.93;;
16577;SDS011;8401;52.528;13.340;2023-05-02T14:30:37;7.23;;;2.97;;
16577;SDS011;8401;52.528;13.340;2023-05-02T14:33:02;9.50;;;3.20;;
16577;SDS011;8401;52.528;13.340;2023-05-02T14:35:28;6.20;;;3.10;;
16577;SDS011;8401;52.528;13.340;2023-05-02T14:37:54;7.60;;;2.70;;
16577;SDS011;8401;52.528;13.340;2023-05-02T14:40:19;12.67;;;3.73;;
16577;SDS011;8401;52.528;13.340;2023-05-02T14:42:45;4.93;;;2.70;;
16577;SDS011;8401;52.528;13.340;2023-05-02T14:45:10;7.70;;;2.80;;
16577;SDS011;8401;52.528;13.340;2023-05-02T14:47:36;7.60;;;3.20;;
16577;SDS011;8401;52.528;13.340;2023-05-02T14:50:02;9.40;;;3.43;;
16577;SDS011;8401;52.528;13.340;2023-05-02T14:52:28;9.90;;;4.37;;
16577;SDS011;8401;52.528;13.340;2023-05-02T14:54:54;4.23;;;3.20;;
16577;SDS011;8401;52.528;13.340;2023-05-02T14:57:22;9.13;;;3.53;;
16577;SDS011;8401;52.528;13.340;2023-05-02T14:59:48;4.13;;;2.90;;
16577;SDS011;8401;52.528;13.340;2023-05-02T15:02:14;6.90;;;2.50;;
16577;SDS011;8401;52.528;13.340;2023-05-02T15:04:40;7.47;;;2.80;;
16577;SDS011;8401;52.528;13.340;2023-05-02T15:07:05;7.17;;;2.83;;
16577;SDS011;8401;52.528;13.340;2023-05-02T15:09:31;6.27;;;2.83;;
16577;SDS011;8401;52.528;13.340;2023-05-02T15:11:57;5.87;;;2.80;;
16577;SDS011;8401;52.528;13.340;2023-05-02T15:14:22;9.53;;;2.93;;
16577;SDS011;8401;52.528;13.340;2023-05-02T15:16:48;6.13;;;3.20;;
16577;SDS011;8401;52.528;13.340;2023-05-02T15:19:13;7.67;;;2.80;;
16577;SDS011;8401;52.528;13.340;2023-05-02T15:21:39;6.73;;;2.90;;
16577;SDS011;8401;52.528;13.340;2023-05-02T15:24:05;7.30;;;3.00;;
16577;SDS011;8401;52.528;13.340;2023-05-02T15:26:31;8.67;;;3.23;;
16577;SDS011;8401;52.528;13.340;2023-05-02T15:28:57;11.20;;;2.33;;
16577;SDS011;8401;52.528;13.340;2023-05-02T15:31:22;4.47;;;2.37;;
16577;SDS011;8401;52.528;13.340;2023-05-02T15:33:49;8.10;;;3.30;;